Lake Montezuma, AZ

9:57 PM MST on September 01, 2014 (GMT -0700)
Lake Montezuma 3 | Change Station
CLOSE
Current Station
Personal Weather Station
Location: Lake Montezuma, AZ
Elevation: 3543 ft
Nearby Weather Stations

Elev 3543 ft 34.64 °N, 111.77 °W | Updated 4 minutes ago

Clear
Clear
76.8 °F
Feels Like 78 °F
N
2.0
Wind Variable Wind from ENE
Gusts 6.0 mph

Today
High -- | Low -- °F
--% Chance of Precip.
Yesterday
High -- | Low -- °F
Precip. -- in
6:00 AM 6:53 PM
Waxing Crescent, 47% visible
Pressure 30.09 in
Visibility 10.0 miles
Clouds Clear
Heat Index 78 °F
Dew Point 47 °F
Humidity 35%
Rainfall 0.00 in
Snow Depth Not available.
UV 0 out of 12
Pollen 7.00 out of 12
Air Quality Not available.
Flu Activity Not available.
METAR KSEZ 020435Z AUTO 02003KT 10SM CLR 26/05 A3009 RMK AO2

More Conditions Fewer Conditions

Pressure 30.09 in
Visibility 10.0 miles
Clouds Clear
Heat Index 78 °F
Dew Point 47 °F
Humidity 35%
Rainfall 0.00 in
Snow Depth Not available.
UV 0 out of 12
Pollen 7.00 out of 12
Air Quality Not available.
Flu Activity Not available.
METAR KSEZ 020435Z AUTO 02003KT 10SM CLR 26/05 A3009 RMK AO2

More Conditions Fewer Conditions

10-Day Weather Forecast

Almanac

Astronomy

Sep. 01, 2014 Rise Set
Actual Time 6:00 AM MST 6:53 PM MST
Civil Twilight 5:34 AM MST 7:18 PM MST
Nautical Twilight 5:04 AM MST 7:49 PM MST
Astronomical Twilight 4:32 AM MST 8:20 PM MST
Moon 12:32 PM MST (9/1) 11:14 PM MST (9/1)
Length of Visible Light 13h 44m
Length of Day
12h 53m
Tomorrow will be 2m 5s shorter.
Waxing Crescent, 47% of the Moon is Illuminated
Sep 2
Waxing Crescent
Sep 2
First Quarter
Sep 8
Full
Sep 15
Last Quarter
Sep 24
New

Yesterday's Extremes

State Highs State Lows

Community

WunderPhotos

Upload Photos

1,749,573 photos uploaded!

WunderBlogs® & News

Nearby

Snow Depth

Station Depth Elevation
White Horse Lake 0 in 7180 ft
Snowslide Canyon 0 in 9730 ft
Workman Creek 1 in 6900 ft
Maverick Fork 0 in 9200 ft
Coronado Trail 0 in 8400 ft

Earthquake Activity

City Distance Mag. Time & Date
No recent earthquake activity has been reported nearby.
Minimum magnitude displayed is 2.5.

Coastal Water Temperatures

Place Temperature
No Stations Reporting

Nearby Weather Stations